Time;durP1;ratioP1;P1;durP2;ratioP2;P2;SDS_P1;SDS_P2;PMS_P1;PMS_P2;Temp;Humidity;BMP_temperature;BMP_pressure;BME280_temperature;BME280_humidity;BME280_pressure;Samples;Min_cycle;Max_cycle;Signal;HPM_P1;HPM_P2
2022/06/19 00:01:30;;;;;;;4.47;2.85;;;22.70;93.30;;;;;;5043871;28;46629;-78
2022/06/19 00:03:57;;;;;;;4.00;2.60;;;22.70;93.30;;;;;;5039458;28;45363;-78
2022/06/19 00:06:26;;;;;;;4.38;2.65;;;22.70;93.30;;;;;;5043635;28;45193;-78
2022/06/19 00:08:53;;;;;;;5.07;2.78;;;22.70;93.40;;;;;;5047122;28;45430;-79
2022/06/19 00:11:21;;;;;;;4.10;2.65;;;22.70;93.40;;;;;;5045314;28;45506;-78
2022/06/19 00:13:48;;;;;;;3.60;2.55;;;22.70;93.40;;;;;;5042447;28;45433;-78
2022/06/19 00:16:15;;;;;;;3.45;2.70;;;22.70;93.40;;;;;;5042004;28;45221;-77
2022/06/19 00:18:42;;;;;;;4.47;2.83;;;22.70;93.50;;;;;;5049357;28;46822;-78
2022/06/19 00:21:11;;;;;;;5.82;2.95;;;22.70;93.40;;;;;;5048076;28;45501;-77
2022/06/19 00:23:39;;;;;;;3.85;2.35;;;22.70;93.30;;;;;;5044534;28;47261;-77
2022/06/19 00:26:07;;;;;;;6.55;2.88;;;22.70;93.30;;;;;;5052167;28;45832;-78
2022/06/19 00:28:33;;;;;;;4.50;2.88;;;22.70;93.30;;;;;;5051816;28;45280;-78
2022/06/19 00:31:00;;;;;;;4.18;2.78;;;22.70;93.30;;;;;;5051266;28;45189;-78
2022/06/19 00:33:27;;;;;;;5.47;2.58;;;22.70;93.20;;;;;;5048508;28;47425;-77
2022/06/19 00:35:54;;;;;;;3.83;2.58;;;22.70;93.20;;;;;;5047248;28;45281;-77
2022/06/19 00:38:21;;;;;;;12.63;5.00;;;22.70;93.20;;;;;;5048883;28;46765;-82
2022/06/19 00:40:49;;;;;;;9.00;4.60;;;22.60;97.60;;;;;;5053851;28;45316;-81
2022/06/19 00:43:16;;;;;;;10.40;4.80;;;22.30;98.60;;;;;;5054854;28;46577;-81
2022/06/19 00:45:49;;;;;;;7.90;5.03;;;22.20;98.30;;;;;;5045128;28;45299;-80
2022/06/19 00:48:19;;;;;;;14.38;5.43;;;22.30;99.90;;;;;;5042006;28;45202;-80
2022/06/19 00:50:48;;;;;;;11.45;5.45;;;22.40;99.90;;;;;;5044179;28;45521;-80
2022/06/19 00:53:18;;;;;;;14.25;5.00;;;22.50;99.90;;;;;;5054054;28;46429;-80
2022/06/19 00:55:48;;;;;;;13.27;5.40;;;22.50;99.90;;;;;;5047879;28;45178;-80
2022/06/19 00:58:20;;;;;;;8.65;5.30;;;22.40;99.90;;;;;;5038545;28;45189;-80
2022/06/19 01:00:51;;;;;;;9.85;5.13;;;22.40;99.90;;;;;;5043558;28;45449;-80
2022/06/19 01:03:23;;;;;;;10.60;4.80;;;22.30;99.90;;;;;;5041782;28;47622;-80
2022/06/19 01:05:51;;;;;;;9.70;4.70;;;22.20;99.90;;;;;;5051150;28;45610;-80
2022/06/19 01:08:18;;;;;;;10.45;4.97;;;22.20;99.90;;;;;;5049317;28;45165;-79
2022/06/19 01:10:48;;;;;;;10.73;5.57;;;22.20;99.90;;;;;;5040613;28;45470;-79
2022/06/19 01:13:19;;;;;;;11.10;5.88;;;22.10;99.90;;;;;;5043534;28;46200;-79
2022/06/19 01:15:46;;;;;;;11.02;5.63;;;22.00;99.90;;;;;;5047384;28;45295;-79
2022/06/19 01:18:14;;;;;;;8.82;5.05;;;22.00;99.90;;;;;;5048781;28;45288;-79
2022/06/19 01:20:42;;;;;;;10.68;5.15;;;21.70;99.90;;;;;;5052213;28;45197;-79
2022/06/19 01:23:16;;;;;;;18.33;5.80;;;21.30;99.90;;;;;;5038940;28;45504;-79
2022/06/19 01:25:45;;;;;;;13.65;6.18;;;21.30;99.90;;;;;;5047670;28;45658;-79
2022/06/19 01:31:02;;;;;;;10.90;6.03;;;21.40;99.90;;;;;;5043854;28;46446;-79
2022/06/19 01:33:33;;;;;;;21.80;6.65;;;21.40;99.90;;;;;;5062085;28;46463;-79
2022/06/19 01:36:02;;;;;;;16.45;5.85;;;21.30;99.90;;;;;;5037860;28;45217;-79
2022/06/19 01:38:30;;;;;;;10.57;6.18;;;20.90;99.90;;;;;;5044020;28;45422;-78
2022/06/19 01:41:03;;;;;;;15.50;6.25;;;20.60;99.90;;;;;;5041322;28;45143;-78
2022/06/19 01:43:30;;;;;;;10.15;6.50;;;20.70;99.90;;;;;;5046796;28;46221;-79
2022/06/19 01:45:58;;;;;;;14.57;6.38;;;20.90;99.90;;;;;;5040594;28;45483;-79
2022/06/19 01:48:29;;;;;;;12.93;6.25;;;20.70;99.90;;;;;;5052847;28;45252;-79
2022/06/19 01:50:57;;;;;;;14.27;5.85;;;20.70;99.90;;;;;;5045216;28;45153;-79
2022/06/19 01:53:30;;;;;;;8.85;5.38;;;20.50;99.90;;;;;;5042630;28;48605;-78
2022/06/19 01:55:58;;;;;;;11.57;5.93;;;20.40;99.90;;;;;;5035478;28;45662;-79
2022/06/19 01:58:29;;;;;;;10.60;5.70;;;20.30;99.90;;;;;;5041270;28;45307;-78
2022/06/19 02:00:57;;;;;;;16.38;6.20;;;20.40;99.90;;;;;;5040369;28;45130;-79
2022/06/19 02:03:29;;;;;;;11.48;6.10;;;20.00;99.90;;;;;;5042611;28;45598;-78
2022/06/19 02:05:56;;;;;;;10.30;5.20;;;20.20;99.90;;;;;;5052391;28;45268;-79
2022/06/19 02:08:24;;;;;;;13.43;5.82;;;20.00;99.90;;;;;;5053527;28;45635;-79
2022/06/19 02:10:52;;;;;;;14.70;5.82;;;20.00;99.90;;;;;;5044889;28;45505;-79
2022/06/19 02:13:21;;;;;;;10.27;5.97;;;20.00;99.90;;;;;;5044312;28;46235;-78
2022/06/19 02:15:50;;;;;;;13.27;5.72;;;20.00;99.90;;;;;;5037048;28;45580;-79
2022/06/19 02:18:21;;;;;;;9.52;5.28;;;19.80;99.90;;;;;;5040543;28;45201;-79
2022/06/19 02:20:50;;;;;;;14.15;5.35;;;19.60;99.90;;;;;;5046194;28;45434;-79
2022/06/19 02:23:20;;;;;;;9.18;4.40;;;19.50;99.90;;;;;;5034618;28;46670;-78
2022/06/19 02:25:49;;;;;;;8.63;4.10;;;19.40;99.90;;;;;;5051963;28;45367;-78
2022/06/19 02:28:16;;;;;;;13.68;4.05;;;19.50;99.90;;;;;;5051958;28;45229;-78
2022/06/19 02:30:44;;;;;;;10.80;4.03;;;19.30;99.90;;;;;;5046791;28;45165;-78
2022/06/19 02:33:15;;;;;;;7.65;3.30;;;19.20;99.90;;;;;;5039015;28;48380;-78
2022/06/19 02:35:42;;;;;;;5.93;2.90;;;19.20;99.90;;;;;;5042733;28;45158;-79
2022/06/19 02:38:09;;;;;;;6.70;2.90;;;19.10;99.90;;;;;;5042604;28;45127;-78
2022/06/19 02:40:41;;;;;;;10.68;2.15;;;18.90;99.90;;;;;;5040816;28;45504;-79
2022/06/19 02:43:13;;;;;;;12.40;1.98;;;18.50;99.90;;;;;;5038569;28;45637;-79
2022/06/19 02:45:41;;;;;;;4.30;1.80;;;18.20;99.90;;;;;;5039982;28;45301;-78
2022/06/19 02:48:19;;;;;;;6.50;2.05;;;18.20;99.90;;;;;;5038151;28;45278;-78
2022/06/19 02:50:46;;;;;;;4.45;1.85;;;18.20;99.90;;;;;;5038660;28;45249;-78
2022/06/19 02:53:13;;;;;;;6.57;1.95;;;18.10;99.90;;;;;;5049503;28;47194;-79
2022/06/19 02:55:41;;;;;;;5.00;1.50;;;17.90;99.90;;;;;;5044350;28;45472;-78
2022/06/19 02:58:08;;;;;;;5.97;1.98;;;17.70;99.90;;;;;;5039554;28;45263;-78
2022/06/19 03:00:35;;;;;;;6.63;1.75;;;17.80;99.90;;;;;;5045923;28;45087;-78
2022/06/19 03:03:06;;;;;;;4.60;1.10;;;17.80;99.90;;;;;;5040975;28;46287;-79
2022/06/19 03:05:35;;;;;;;7.63;1.50;;;17.60;99.90;;;;;;5042228;28;45319;-78
2022/06/19 03:08:02;;;;;;;12.40;2.13;;;17.30;99.90;;;;;;5042232;28;45429;-78
2022/06/19 03:10:30;;;;;;;6.07;1.80;;;17.40;99.90;;;;;;5043370;28;45452;-78
2022/06/19 03:12:58;;;;;;;9.27;2.10;;;17.30;99.90;;;;;;5048543;28;46709;-78
2022/06/19 03:15:25;;;;;;;9.70;2.10;;;17.20;99.90;;;;;;5050938;28;45260;-78
2022/06/19 03:17:52;;;;;;;8.35;1.77;;;17.20;99.90;;;;;;5055248;28;45235;-78
2022/06/19 03:20:22;;;;;;;6.60;2.10;;;17.10;99.90;;;;;;5053489;28;45369;-78
2022/06/19 03:22:50;;;;;;;6.18;1.88;;;17.00;99.90;;;;;;5049236;28;46071;-78
2022/06/19 03:25:18;;;;;;;9.93;2.35;;;16.80;99.90;;;;;;5042348;28;46781;-78
2022/06/19 03:27:45;;;;;;;7.43;1.75;;;16.80;99.90;;;;;;5049894;28;45533;-78
2022/06/19 03:30:14;;;;;;;6.40;1.80;;;16.70;99.90;;;;;;5037990;28;45367;-78
2022/06/19 03:32:42;;;;;;;5.65;2.20;;;16.80;99.90;;;;;;5036360;28;47415;-78
2022/06/19 03:35:10;;;;;;;8.90;1.67;;;16.60;99.90;;;;;;5042732;28;45440;-78
2022/06/19 03:37:37;;;;;;;13.73;2.38;;;16.50;99.90;;;;;;5047425;28;45282;-78
2022/06/19 03:40:07;;;;;;;6.20;2.00;;;16.50;99.90;;;;;;5049695;28;45377;-78
2022/06/19 03:42:34;;;;;;;9.75;1.95;;;16.40;99.90;;;;;;5038980;28;47698;-78
2022/06/19 03:45:01;;;;;;;9.95;1.90;;;16.50;99.90;;;;;;5042201;28;45258;-78
2022/06/19 03:47:30;;;;;;;5.97;1.80;;;16.30;99.90;;;;;;5041538;28;45182;-78
2022/06/19 03:49:57;;;;;;;6.70;1.42;;;16.30;99.90;;;;;;5036906;28;45561;-78
2022/06/19 03:52:23;;;;;;;7.97;1.40;;;16.20;99.90;;;;;;5041024;28;48334;-78
2022/06/19 03:54:50;;;;;;;9.88;2.00;;;16.20;99.90;;;;;;5037298;28;45265;-78
2022/06/19 03:57:18;;;;;;;7.95;1.83;;;16.10;99.90;;;;;;5049834;28;45201;-78
2022/06/19 03:59:45;;;;;;;7.95;1.58;;;16.00;99.90;;;;;;5057300;28;45322;-78
2022/06/19 04:02:12;;;;;;;8.18;1.65;;;15.90;99.90;;;;;;5051630;28;46462;-78
2022/06/19 04:04:40;;;;;;;17.13;2.15;;;15.90;99.90;;;;;;5052922;28;45315;-78
2022/06/19 04:07:08;;;;;;;10.18;1.95;;;15.90;99.90;;;;;;5046910;28;45371;-78
2022/06/19 04:09:35;;;;;;;8.13;1.95;;;15.90;99.90;;;;;;5050511;28;45162;-78
2022/06/19 04:12:02;;;;;;;6.03;1.58;;;15.60;99.90;;;;;;5046288;28;46534;-78
2022/06/19 04:14:30;;;;;;;9.50;1.55;;;15.50;99.90;;;;;;5047783;28;45685;-78
2022/06/19 04:16:57;;;;;;;9.48;1.80;;;15.40;99.90;;;;;;5252684;22;46339;-77
2022/06/19 04:19:24;;;;;;;6.63;1.48;;;15.40;99.90;;;;;;5047599;28;45345;-77
2022/06/19 04:21:51;;;;;;;13.43;2.38;;;15.30;99.90;;;;;;5048304;28;46348;-77
2022/06/19 04:24:20;;;;;;;8.90;1.90;;;15.30;99.90;;;;;;5044485;28;45274;-77
2022/06/19 04:26:48;;;;;;;10.05;2.08;;;15.20;99.90;;;;;;5052705;28;45319;-77
2022/06/19 04:29:16;;;;;;;10.25;2.50;;;15.20;99.90;;;;;;5044370;28;45675;-77
2022/06/19 04:31:45;;;;;;;11.13;1.85;;;15.30;99.90;;;;;;5050500;28;46317;-77
2022/06/19 04:34:12;;;;;;;7.78;1.65;;;15.50;99.90;;;;;;5046584;28;45336;-74
2022/06/19 04:36:40;;;;;;;10.45;1.98;;;15.50;99.90;;;;;;5049225;28;45384;-74
2022/06/19 04:39:07;;;;;;;13.18;1.85;;;15.40;99.90;;;;;;5052207;28;45437;-74
2022/06/19 04:41:36;;;;;;;12.10;1.98;;;15.50;99.90;;;;;;5046001;28;47151;-74
2022/06/19 04:44:06;;;;;;;8.57;1.92;;;15.60;99.90;;;;;;5055357;28;45355;-75
2022/06/19 04:46:33;;;;;;;11.85;2.22;;;15.50;99.90;;;;;;5050324;28;45260;-74
2022/06/19 04:49:02;;;;;;;18.55;1.98;;;15.50;99.90;;;;;;5051655;28;45212;-75
2022/06/19 04:51:28;;;;;;;8.38;1.80;;;15.40;99.90;;;;;;5042209;28;47192;-75
2022/06/19 04:53:55;;;;;;;13.77;1.90;;;15.50;99.90;;;;;;5048914;28;45421;-75
2022/06/19 04:56:23;;;;;;;13.35;2.15;;;15.50;99.90;;;;;;5039345;28;46070;-75
2022/06/19 04:58:50;;;;;;;9.15;1.65;;;15.70;99.90;;;;;;5049625;28;45725;-75
2022/06/19 05:01:24;;;;;;;8.40;1.73;;;15.70;99.90;;;;;;5050430;28;47036;-75
2022/06/19 05:03:53;;;;;;;14.38;1.88;;;15.60;99.90;;;;;;5049268;28;45201;-75
2022/06/19 05:06:21;;;;;;;12.07;2.22;;;15.60;99.90;;;;;;5057944;28;45220;-75
2022/06/19 05:08:49;;;;;;;16.48;2.28;;;15.80;99.90;;;;;;5048171;28;45346;-75
2022/06/19 05:11:16;;;;;;;9.70;1.48;;;15.80;99.90;;;;;;5047716;28;46264;-75
2022/06/19 05:13:43;;;;;;;12.80;1.92;;;15.80;99.90;;;;;;5051701;28;45392;-75
2022/06/19 05:16:12;;;;;;;14.55;1.88;;;15.90;99.90;;;;;;5051204;28;45323;-75
2022/06/19 05:18:39;;;;;;;6.80;1.90;;;16.00;99.90;;;;;;5055070;28;45097;-75
2022/06/19 05:21:06;;;;;;;9.85;2.03;;;16.00;99.90;;;;;;5054795;28;46606;-75
2022/06/19 05:23:36;;;;;;;11.32;2.05;;;16.00;99.90;;;;;;5040134;28;45228;-75
2022/06/19 05:26:07;;;;;;;12.68;1.67;;;16.00;99.90;;;;;;5055600;28;45260;-75
2022/06/19 05:28:35;;;;;;;9.73;1.88;;;16.00;99.90;;;;;;5052260;28;45268;-75
2022/06/19 05:31:02;;;;;;;13.60;1.35;;;16.00;99.90;;;;;;5035609;28;46350;-75
2022/06/19 05:33:31;;;;;;;12.15;1.70;;;16.10;99.90;;;;;;5057664;28;45181;-75
2022/06/19 05:35:58;;;;;;;10.82;2.47;;;16.10;99.90;;;;;;5042117;28;45408;-75
2022/06/19 05:38:26;;;;;;;16.00;2.90;;;16.40;99.90;;;;;;5053706;28;45294;-74
2022/06/19 05:40:56;;;;;;;12.60;1.92;;;16.50;99.90;;;;;;5042414;28;47397;-74
2022/06/19 05:43:24;;;;;;;14.45;2.00;;;16.50;99.90;;;;;;5043553;28;45317;-75
2022/06/19 05:45:52;;;;;;;15.45;2.53;;;16.60;99.90;;;;;;5045021;28;45284;-75
2022/06/19 05:48:19;;;;;;;11.55;2.30;;;16.60;99.90;;;;;;5045646;28;45333;-74
2022/06/19 05:50:46;;;;;;;13.00;2.70;;;16.80;99.80;;;;;;5044580;28;46310;-75
2022/06/19 05:53:13;;;;;;;16.58;2.35;;;16.80;99.30;;;;;;5039060;28;45271;-75
2022/06/19 05:55:40;;;;;;;12.25;2.35;;;16.90;98.70;;;;;;5037463;28;45277;-74
2022/06/19 05:58:08;;;;;;;14.57;3.13;;;17.00;98.80;;;;;;5038624;28;46744;-74
2022/06/19 06:00:35;;;;;;;16.23;2.10;;;17.20;98.90;;;;;;5045451;28;47295;-74
2022/06/19 06:03:02;;;;;;;18.00;3.15;;;17.40;98.90;;;;;;5049167;28;45399;-74
2022/06/19 06:05:29;;;;;;;11.68;2.25;;;17.50;98.40;;;;;;5052573;28;45291;-74
2022/06/19 06:07:56;;;;;;;15.27;2.75;;;17.50;97.70;;;;;;5044823;28;45200;-74
2022/06/19 06:10:22;;;;;;;17.90;2.70;;;17.60;97.60;;;;;;5041585;28;47964;-74
2022/06/19 06:12:49;;;;;;;17.52;2.15;;;17.50;97.10;;;;;;5042068;28;45234;-75
2022/06/19 06:15:18;;;;;;;9.10;2.10;;;17.50;97.50;;;;;;5055174;28;45421;-74
2022/06/19 06:17:45;;;;;;;10.45;2.05;;;17.70;97.50;;;;;;5040690;28;45240;-75
2022/06/19 06:20:12;;;;;;;14.23;2.60;;;17.70;97.50;;;;;;5039612;28;46310;-74
2022/06/19 06:22:40;;;;;;;16.27;3.03;;;17.70;97.50;;;;;;5037482;28;45174;-74
2022/06/19 06:25:08;;;;;;;12.70;2.75;;;17.80;96.30;;;;;;5046634;28;46652;-74
2022/06/19 06:27:34;;;;;;;9.80;1.95;;;18.00;95.80;;;;;;5047046;28;45434;-74
2022/06/19 06:30:02;;;;;;;13.10;2.28;;;18.60;94.40;;;;;;5055448;28;46397;-75
2022/06/19 06:32:30;;;;;;;11.75;2.50;;;18.60;93.60;;;;;;5038464;28;45175;-75
2022/06/19 06:34:57;;;;;;;6.32;2.08;;;18.40;93.80;;;;;;5042554;28;45461;-75
2022/06/19 06:37:25;;;;;;;13.93;2.55;;;18.40;94.30;;;;;;5044625;28;45348;-75
2022/06/19 06:39:52;;;;;;;10.68;2.70;;;18.80;93.70;;;;;;5050474;28;47019;-75
2022/06/19 06:42:19;;;;;;;13.32;2.55;;;19.00;92.80;;;;;;5042446;28;45388;-75
2022/06/19 06:44:47;;;;;;;12.77;3.13;;;18.80;93.00;;;;;;5042346;28;45186;-75
2022/06/19 06:47:14;;;;;;;8.32;1.90;;;18.90;92.90;;;;;;5042162;28;45412;-75
2022/06/19 06:49:43;;;;;;;16.00;3.42;;;19.20;93.80;;;;;;5045369;28;47515;-75
2022/06/19 06:52:10;;;;;;;12.95;2.58;;;19.60;91.40;;;;;;5043487;28;45692;-75
2022/06/19 06:54:37;;;;;;;11.13;2.42;;;19.00;93.20;;;;;;5050562;28;45373;-75
2022/06/19 06:57:05;;;;;;;9.95;2.42;;;18.50;93.60;;;;;;5043182;28;45385;-75
2022/06/19 06:59:33;;;;;;;12.50;2.50;;;18.30;94.70;;;;;;5042228;28;46461;-75
2022/06/19 07:02:00;;;;;;;12.85;3.25;;;18.20;94.80;;;;;;5050703;28;46296;-75
2022/06/19 07:04:28;;;;;;;15.20;2.38;;;18.10;94.90;;;;;;5045342;28;45407;-75
2022/06/19 07:06:56;;;;;;;12.90;4.00;;;18.10;96.00;;;;;;5042833;28;45339;-75
2022/06/19 07:09:23;;;;;;;12.70;2.55;;;18.30;96.10;;;;;;5036901;28;46616;-74
2022/06/19 07:11:50;;;;;;;16.98;2.00;;;18.30;95.30;;;;;;5038613;28;45507;-74
2022/06/19 07:14:19;;;;;;;14.48;2.40;;;18.40;95.50;;;;;;5047520;28;45381;-74
2022/06/19 07:16:46;;;;;;;10.05;2.40;;;18.50;94.70;;;;;;5040674;28;45729;-74
2022/06/19 07:19:13;;;;;;;12.02;1.95;;;18.30;94.90;;;;;;5041416;28;46224;-74
2022/06/19 07:21:40;;;;;;;17.85;3.08;;;18.30;95.10;;;;;;5049525;28;45379;-74
2022/06/19 07:24:08;;;;;;;11.35;2.40;;;18.10;95.00;;;;;;5038789;28;45638;-74
2022/06/19 07:26:35;;;;;;;14.90;3.65;;;18.10;93.40;;;;;;5042727;28;45423;-73
2022/06/19 07:29:03;;;;;;;12.57;2.28;;;17.90;92.00;;;;;;5041970;28;47518;-73
2022/06/19 07:31:30;;;;;;;16.13;2.63;;;17.90;92.60;;;;;;5038353;28;45425;-74
2022/06/19 07:33:56;;;;;;;11.07;1.83;;;17.90;91.90;;;;;;5040987;28;45276;-74
2022/06/19 07:36:24;;;;;;;14.35;2.28;;;17.90;92.30;;;;;;5041789;28;45254;-74
2022/06/19 07:38:52;;;;;;;9.30;2.00;;;17.90;92.10;;;;;;5044680;28;46313;-74
2022/06/19 07:41:21;;;;;;;9.52;1.83;;;17.70;91.30;;;;;;5040941;28;45878;-74
2022/06/19 07:43:50;;;;;;;11.75;1.58;;;17.70;92.10;;;;;;5044886;28;45359;-74
2022/06/19 07:46:17;;;;;;;8.13;2.00;;;17.70;91.90;;;;;;5044341;28;45238;-74
2022/06/19 07:51:30;;;;;;;7.95;1.63;;;17.50;91.80;;;;;;5041942;28;45372;-74
2022/06/19 07:53:56;;;;;;;13.57;1.98;;;17.70;91.30;;;;;;5039342;28;45584;-73
2022/06/19 07:56:25;;;;;;;7.70;2.00;;;17.70;91.70;;;;;;5044416;28;45470;-74
2022/06/19 07:58:52;;;;;;;15.18;2.13;;;17.70;92.60;;;;;;5047482;28;47594;-73
2022/06/19 08:01:19;;;;;;;6.05;1.42;;;17.70;91.70;;;;;;5049426;28;45146;-74
2022/06/19 08:03:46;;;;;;;9.25;1.95;;;17.40;91.60;;;;;;5038263;28;45347;-74
2022/06/19 08:06:14;;;;;;;12.30;2.08;;;17.60;92.10;;;;;;5045920;28;45530;-74
2022/06/19 08:08:42;;;;;;;13.88;1.73;;;17.70;92.90;;;;;;5040266;28;45460;-74
2022/06/19 08:11:10;;;;;;;11.90;1.83;;;17.90;91.70;;;;;;5042571;28;45521;-74
2022/06/19 08:13:39;;;;;;;10.63;2.13;;;17.90;91.50;;;;;;5045106;28;45375;-73
2022/06/19 08:16:08;;;;;;;13.15;2.22;;;18.00;91.40;;;;;;5040689;28;45301;-74
2022/06/19 08:18:36;;;;;;;7.35;1.67;;;18.30;89.90;;;;;;5038115;28;45288;-74
2022/06/19 08:21:04;;;;;;;10.70;2.13;;;18.20;90.50;;;;;;5038295;28;45332;-74
2022/06/19 08:23:31;;;;;;;8.77;1.63;;;18.10;90.60;;;;;;5043114;28;46274;-73
2022/06/19 08:25:59;;;;;;;10.73;1.95;;;18.00;90.10;;;;;;5042596;28;45479;-73
2022/06/19 08:28:29;;;;;;;7.88;1.70;;;18.30;90.60;;;;;;5039094;28;45296;-73
2022/06/19 08:30:57;;;;;;;5.68;1.80;;;18.50;90.50;;;;;;5036139;28;46340;-73
2022/06/19 08:33:24;;;;;;;10.85;1.90;;;18.50;89.10;;;;;;5039957;28;45386;-73
2022/06/19 08:36:03;;;;;;;13.07;2.42;;;18.90;89.40;;;;;;5050980;28;45346;-84
2022/06/19 08:38:33;;;;;;;69.72;4.80;;;19.30;88.40;;;;;;5035632;28;46313;-81
2022/06/19 08:41:30;;;;;;;23.23;3.22;;;19.80;88.00;;;;;;5050189;28;45332;-81
2022/06/19 08:44:57;;;;;;;27.40;2.75;;;20.40;84.20;;;;;;5039197;28;45181;-80
2022/06/19 08:47:48;;;;;;;15.07;1.77;;;20.70;81.80;;;;;;4969206;28;45494;-80
2022/06/19 08:50:28;;;;;;;8.32;1.35;;;20.90;80.90;;;;;;5046379;28;45479;-80
2022/06/19 08:53:08;;;;;;;13.18;1.70;;;21.10;79.20;;;;;;5049630;28;45615;-80
2022/06/19 08:55:47;;;;;;;7.15;1.40;;;21.20;79.20;;;;;;5047258;28;45344;-79
2022/06/19 08:58:22;;;;;;;4.90;1.50;;;21.20;78.40;;;;;;5041394;28;45464;-79
2022/06/19 09:00:57;;;;;;;6.20;1.38;;;21.30;78.30;;;;;;5045174;28;46566;-78
2022/06/19 09:06:31;;;;;;;5.60;1.27;;;21.40;78.10;;;;;;5047194;28;45754;-79
2022/06/19 09:09:14;;;;;;;4.47;1.00;;;21.40;77.80;;;;;;5047726;28;45827;-78
2022/06/19 09:11:59;;;;;;;5.10;1.13;;;21.40;77.60;;;;;;5052148;28;45816;-78
2022/06/19 09:14:49;;;;;;;4.88;1.10;;;21.50;77.00;;;;;;5051817;28;45579;-78
2022/06/19 09:17:26;;;;;;;4.15;1.10;;;21.50;76.50;;;;;;5049824;28;45378;-78
2022/06/19 09:20:03;;;;;;;7.82;1.00;;;21.60;76.70;;;;;;5048289;28;45204;-79
2022/06/19 09:23:07;;;;;;;6.43;1.30;;;21.60;76.70;;;;;;5049404;28;45495;-79
2022/06/19 09:25:47;;;;;;;4.03;1.00;;;21.60;76.30;;;;;;5040324;28;46143;-79
2022/06/19 09:28:23;;;;;;;4.68;1.20;;;21.60;76.60;;;;;;5057768;28;45425;-79
2022/06/19 09:30:58;;;;;;;2.90;0.85;;;21.60;77.30;;;;;;5068020;28;45450;-79
2022/06/19 09:33:34;;;;;;;3.78;1.00;;;21.60;77.10;;;;;;5069940;28;46326;-80
2022/06/19 09:36:11;;;;;;;4.07;0.98;;;21.60;77.20;;;;;;5058995;28;45134;-80
2022/06/19 09:38:52;;;;;;;3.53;1.17;;;21.60;77.70;;;;;;5054486;28;45286;-80
2022/06/19 09:41:27;;;;;;;4.88;1.10;;;21.70;77.80;;;;;;5025413;28;45544;-81
2022/06/19 09:44:02;;;;;;;4.75;1.23;;;21.70;78.60;;;;;;5052748;28;46228;-80
2022/06/19 09:46:40;;;;;;;6.68;1.20;;;21.70;79.00;;;;;;5053067;28;45752;-80
2022/06/19 09:49:18;;;;;;;4.28;1.55;;;21.70;78.50;;;;;;5041281;28;45240;-81
2022/06/19 09:52:13;;;;;;;4.75;1.05;;;21.70;79.00;;;;;;5051096;28;45208;-80
2022/06/19 09:54:45;;;;;;;2.00;0.82;;;21.70;78.40;;;;;;5058502;28;47072;-81
2022/06/19 09:57:25;;;;;;;4.03;0.88;;;21.80;78.40;;;;;;5052872;28;45211;-81
2022/06/19 10:00:17;;;;;;;1.73;0.73;;;21.80;78.70;;;;;;5055288;28;45336;-81
2022/06/19 10:02:54;;;;;;;1.75;0.70;;;21.80;78.40;;;;;;5067971;28;45419;-81
2022/06/19 10:05:35;;;;;;;4.03;0.95;;;21.80;78.20;;;;;;5053334;28;45488;-81
2022/06/19 10:08:15;;;;;;;2.33;0.90;;;21.80;78.10;;;;;;5063268;28;45318;-81
2022/06/19 10:10:48;;;;;;;3.97;1.10;;;21.80;78.20;;;;;;5050100;28;45165;-79
2022/06/19 10:13:22;;;;;;;4.88;1.35;;;21.80;78.50;;;;;;5045370;28;45518;-81
2022/06/19 10:19:19;;;;;;;3.47;1.30;;;21.80;78.80;;;;;;5067005;28;45317;-81
2022/06/19 10:25:18;;;;;;;3.45;0.93;;;21.80;79.80;;;;;;5049211;28;45333;-82
2022/06/19 10:31:17;;;;;;;2.67;0.98;;;21.90;79.30;;;;;;5061535;28;45265;-80
2022/06/19 10:34:06;;;;;;;2.53;0.82;;;21.80;79.40;;;;;;5041482;28;45563;-80
2022/06/19 10:36:40;;;;;;;1.90;0.88;;;21.80;79.40;;;;;;5041323;28;45173;-80
2022/06/19 10:39:23;;;;;;;3.47;1.10;;;21.80;79.80;;;;;;5052836;28;47816;-80
2022/06/19 10:42:10;;;;;;;3.55;1.67;;;21.80;79.80;;;;;;5040558;28;45959;-80
2022/06/19 10:45:17;;;;;;;3.17;1.02;;;21.90;79.90;;;;;;5049664;28;45259;-81
2022/06/19 11:16:06;;;;;;;4.45;1.23;;;21.90;79.30;;;;;;5060427;28;45679;-81
2022/06/19 11:21:53;;;;;;;3.38;1.20;;;22.00;79.10;;;;;;5047180;28;45367;-80
2022/06/19 11:24:29;;;;;;;4.63;1.15;;;22.00;79.30;;;;;;5043887;28;45296;-80
2022/06/19 11:29:47;;;;;;;2.78;0.68;;;21.90;79.80;;;;;;5043748;28;45188;-80
2022/06/19 11:32:18;;;;;;;2.95;0.93;;;22.00;79.70;;;;;;5041133;28;45288;-80
2022/06/19 11:34:57;;;;;;;2.08;1.02;;;21.90;79.90;;;;;;5046178;28;45437;-80
2022/06/19 11:37:31;;;;;;;2.15;0.80;;;21.90;79.00;;;;;;5044021;28;48326;-80
2022/06/19 11:40:40;;;;;;;2.35;0.70;;;21.90;78.90;;;;;;5048682;28;45403;-80
2022/06/19 11:43:41;;;;;;;3.78;1.00;;;21.90;78.40;;;;;;5056828;28;45479;-82
2022/06/19 11:46:19;;;;;;;2.28;0.82;;;22.00;78.80;;;;;;5047402;28;45353;-79
2022/06/19 11:48:47;;;;;;;4.13;0.93;;;22.00;80.00;;;;;;5042320;28;46730;-81
2022/06/19 11:51:23;;;;;;;5.28;1.30;;;22.10;81.60;;;;;;5044669;28;46379;-79
2022/06/19 11:54:00;;;;;;;1.45;0.75;;;22.00;82.10;;;;;;5041239;28;45394;-79
2022/06/19 11:56:35;;;;;;;5.32;1.50;;;22.10;82.80;;;;;;5045081;28;45313;-79
2022/06/19 11:59:11;;;;;;;3.53;0.90;;;22.00;82.80;;;;;;5043828;28;47397;-79
2022/06/19 12:01:45;;;;;;;3.33;1.02;;;22.10;83.30;;;;;;5037670;28;45508;-79
2022/06/19 12:04:29;;;;;;;5.15;0.90;;;22.10;83.50;;;;;;5041098;28;45250;-79
2022/06/19 12:07:04;;;;;;;4.20;0.95;;;22.10;83.80;;;;;;5041031;28;45334;-79
2022/06/19 12:09:40;;;;;;;3.13;0.95;;;22.00;83.60;;;;;;5039467;28;45513;-79
2022/06/19 12:12:20;;;;;;;4.80;0.95;;;22.00;84.20;;;;;;5036905;28;45237;-79
2022/06/19 12:15:00;;;;;;;2.05;0.85;;;22.10;84.30;;;;;;5042409;28;45369;-80
2022/06/19 12:17:41;;;;;;;2.47;0.90;;;22.00;84.40;;;;;;5046923;28;45442;-80
2022/06/19 12:23:26;;;;;;;3.22;1.08;;;22.00;85.00;;;;;;5045768;28;45500;-80
2022/06/19 12:26:00;;;;;;;3.08;0.80;;;22.00;86.00;;;;;;5047728;28;45181;-80
2022/06/19 12:28:36;;;;;;;1.80;0.65;;;22.00;85.20;;;;;;5046915;28;45519;-81
2022/06/19 12:31:10;;;;;;;1.67;0.80;;;22.00;85.30;;;;;;5053877;28;47181;-81
2022/06/19 12:33:44;;;;;;;2.35;0.95;;;22.00;85.70;;;;;;5047920;28;46158;-80
2022/06/19 12:36:15;;;;;;;1.88;0.90;;;22.00;86.10;;;;;;5046727;28;45206;-81
2022/06/19 12:38:46;;;;;;;2.25;0.80;;;22.00;86.10;;;;;;5051929;28;46360;-81
2022/06/19 12:41:37;;;;;;;3.13;1.00;;;22.00;86.40;;;;;;5024000;28;46103;-81
2022/06/19 12:44:26;;;;;;;2.15;0.70;;;22.00;86.80;;;;;;5051376;28;45373;-81
2022/06/19 12:47:05;;;;;;;4.50;1.25;;;22.00;86.70;;;;;;5043323;28;45284;-81
2022/06/19 12:50:13;;;;;;;1.88;1.10;;;22.00;86.60;;;;;;5048421;28;45181;-81
2022/06/19 12:52:51;;;;;;;2.03;0.88;;;22.00;86.90;;;;;;5041888;28;48577;-80
2022/06/19 12:55:52;;;;;;;2.78;1.00;;;22.00;87.00;;;;;;5027778;28;45259;-80
2022/06/19 12:58:53;;;;;;;1.98;0.88;;;22.00;87.20;;;;;;5044588;28;45273;-80
2022/06/19 13:01:54;;;;;;;2.47;0.80;;;22.00;87.30;;;;;;5051274;28;45351;-80
2022/06/19 13:04:36;;;;;;;3.92;1.10;;;22.10;87.70;;;;;;5025590;28;46017;-80
2022/06/19 13:07:25;;;;;;;3.10;0.98;;;22.00;87.40;;;;;;5026749;28;45369;-80
2022/06/19 13:10:15;;;;;;;2.13;0.93;;;22.00;87.50;;;;;;5051754;28;45339;-80
2022/06/19 13:12:55;;;;;;;3.63;1.00;;;22.00;87.30;;;;;;5048686;28;45264;-80
2022/06/19 13:15:48;;;;;;;1.50;0.90;;;22.00;87.40;;;;;;5043834;28;47213;-80
2022/06/19 13:18:30;;;;;;;2.35;0.90;;;22.00;87.40;;;;;;5043334;28;45235;-79
2022/06/19 13:21:03;;;;;;;4.32;1.15;;;22.00;87.20;;;;;;5052592;28;45464;-79
2022/06/19 13:23:40;;;;;;;1.40;0.80;;;22.10;87.30;;;;;;5042390;28;45656;-79
2022/06/19 13:29:14;;;;;;;3.60;0.90;;;22.10;87.10;;;;;;5017339;28;45183;-80
2022/06/19 13:31:49;;;;;;;3.30;1.10;;;22.10;87.30;;;;;;5049985;28;45577;-79
2022/06/19 13:34:32;;;;;;;2.58;1.00;;;22.00;87.30;;;;;;5040241;28;45348;-80
2022/06/19 13:37:13;;;;;;;2.55;1.00;;;22.00;87.50;;;;;;5023757;28;46761;-79
2022/06/19 13:39:50;;;;;;;3.30;1.02;;;22.00;87.60;;;;;;5044500;28;45616;-80
2022/06/19 13:42:44;;;;;;;4.60;1.15;;;22.00;88.00;;;;;;5043061;28;45184;-79
2022/06/19 13:45:36;;;;;;;2.55;1.00;;;22.00;88.30;;;;;;5042959;28;45296;-79
2022/06/19 13:48:14;;;;;;;2.72;0.90;;;22.00;88.50;;;;;;5044381;28;46996;-81
2022/06/19 13:50:47;;;;;;;2.42;0.95;;;22.00;88.50;;;;;;5041533;28;46004;-79
2022/06/19 13:53:24;;;;;;;4.97;1.30;;;22.00;88.10;;;;;;5041676;28;45228;-79
2022/06/19 13:56:12;;;;;;;2.78;1.10;;;22.00;88.20;;;;;;5025327;28;45618;-79
2022/06/19 13:59:06;;;;;;;4.18;0.80;;;22.00;88.50;;;;;;5042129;28;47034;-78
2022/06/19 14:01:45;;;;;;;3.63;0.90;;;22.10;88.40;;;;;;5044715;28;45264;-79
2022/06/19 14:04:50;;;;;;;3.20;0.73;;;22.10;88.30;;;;;;5039612;28;45245;-78
2022/06/19 14:07:56;;;;;;;1.92;0.85;;;22.10;88.00;;;;;;5026706;28;45353;-79
2022/06/19 14:10:34;;;;;;;5.55;1.05;;;22.10;88.30;;;;;;5040724;28;48275;-78